메인 페이지
METAR-TAF:

METAR-TAF

공항 :

핼리팩스 스탠필드 국제공항

핼리팩스, 노바스코샤, 캐나다

위도: 44-53N, 경도: 063-30W, 고도: 145m

현재 날씨관측

예보는 27분 전, 07:00시(UTC)에 발표되었습니다.
남남서15kt, 순간 최대 풍속 20kt
온도 11°C
습도 100%
기압 1024 hPa
시정: 0.8km
약한이슬비, 안개

METAR: CYHZ 210700Z 20015G20KT 1/2SM R23/3500FT/N R14/3500FT/N -DZ FG VV001 11/11 A3024 RMK FG8 SLP242

시각: 04:27 (07:27 UTC)

예보

예보는 1 시간 46분 전, 05:41시(UTC)에 발표되었습니다.
예보 대상 시간: 21일 06시부터 22일 06시까지 (UTC)
남남서12kt, 순간 최대 풍속 22kt
시정: 0.8km
고도 100ft 상공
약한이슬비, 안개
21일 1400시부터 (UTC)
남남서15kt, 순간 최대 풍속 25kt
고도 200ft 상공 흐림
박무
21일 1800시부터 (UTC)
남남서15kt, 순간 최대 풍속 25kt
시정: 10km
고도 500ft 상공 흐림
22일 0000시부터 (UTC)
남남서15kt
시정: 3.2km
고도 300ft 상공 흐림
박무
22일 0300시부터 (UTC)
남남서12kt
시정: 3.2km
고도 200ft 상공 흐림
약한비, 박무

TAF: CYHZ 210541Z 2106/2206 20012G22KT 1/2SM -DZ FG VV001 FM211400 20015G25KT 11/2SM BR OVC002 FM211800 20015G25KT P6SM OVC005 FM220000 20015KT 2SM BR OVC003 FM220300 20012KT 2SM -RA BR OVC002 RMK NXT FCST BY 210900Z

4,000개 이상의 공항 관측 자료 및 예보 (METAR 및 TAF 보고).

지도상에서 검색 가능한 기상관측소가 노란 점과 빨간 점으로 표시되어 있습니다.

기상관측소 명을 보려면 표시 위로 마우스를 이동하세요.

날씨 관측과 예보를 보려면 클릭하세요.

지도 변경 : 확대하려면 엑스 표시가 있는 녹색 버튼, 축소하려면 빼기 표시가 있는 녹색 버튼, 다음 페이지의 지도를 보려면 녹색 화살표를 클릭하세요.


METAR-TAF: